createdAt,value
2023-02-08T00:01:47.437Z,67.13
2023-02-08T00:04:32.666Z,65.45
2023-02-08T00:07:18.004Z,71.30
2023-02-08T00:10:05.221Z,74.18
2023-02-08T00:12:52.156Z,74.78
2023-02-08T00:15:42.634Z,77.78
2023-02-08T00:18:27.794Z,72.80
2023-02-08T00:21:16.065Z,82.55
2023-02-08T00:24:01.886Z,72.93
2023-02-08T00:26:46.974Z,71.75
2023-02-08T00:29:32.384Z,73.80
2023-02-08T00:32:17.991Z,76.65
2023-02-08T00:35:03.253Z,82.43
2023-02-08T00:37:50.080Z,79.82
2023-02-08T00:40:36.534Z,81.45
2023-02-08T00:43:21.901Z,80.45
2023-02-08T00:46:08.137Z,74.43
2023-02-08T00:48:54.281Z,79.82
2023-02-08T00:51:39.577Z,74.22
2023-02-08T00:54:24.735Z,82.30
2023-02-08T00:57:10.271Z,64.90
2023-02-08T00:59:55.951Z,92.30
2023-02-08T01:02:41.288Z,84.57
2023-02-08T01:05:26.888Z,78.97
2023-02-08T01:08:12.174Z,78.28
2023-02-08T01:11:05.889Z,83.80
2023-02-08T01:13:54.386Z,82.38
2023-02-08T01:16:40.071Z,85.00
2023-02-08T01:19:25.307Z,78.63
2023-02-08T01:22:10.602Z,76.47
2023-02-08T01:24:56.091Z,80.95
2023-02-08T01:27:41.507Z,72.60
2023-02-08T01:30:26.945Z,78.65
2023-02-08T01:33:12.325Z,79.72
2023-02-08T01:35:57.835Z,77.95
2023-02-08T01:38:44.597Z,71.72
2023-02-08T01:41:36.333Z,80.47
2023-02-08T01:45:20.784Z,83.07
2023-02-08T01:48:14.781Z,73.15
2023-02-08T01:51:03.225Z,74.15
2023-02-08T01:53:52.771Z,71.22
2023-02-08T01:56:41.401Z,73.82
2023-02-08T01:59:34.056Z,73.88
2023-02-08T02:02:22.834Z,68.28
2023-02-08T02:05:08.826Z,76.35
2023-02-08T02:07:56.844Z,70.50
2023-02-08T02:10:43.109Z,71.97
2023-02-08T02:13:29.116Z,75.15
2023-02-08T02:16:14.462Z,62.47
2023-02-08T02:18:59.870Z,66.13
2023-02-08T02:22:32.708Z,62.63
2023-02-08T02:25:29.757Z,65.53
2023-02-08T02:28:43.073Z,61.17
2023-02-08T02:31:41.376Z,62.17
2023-02-08T02:34:40.760Z,61.33
2023-02-08T02:37:37.561Z,58.03
2023-02-08T02:40:36.418Z,64.35
2023-02-08T02:43:54.003Z,59.78
2023-02-08T02:46:43.103Z,59.22
2023-02-08T02:52:42.204Z,57.65
2023-02-08T02:55:33.616Z,57.17
2023-02-08T02:58:23.778Z,53.45
2023-02-08T03:01:09.314Z,48.72
2023-02-08T03:03:55.267Z,53.03
2023-02-08T03:06:56.953Z,54.35
2023-02-08T03:09:45.433Z,57.90
2023-02-08T03:12:49.616Z,54.27
2023-02-08T03:16:19.369Z,56.85
2023-02-08T03:19:20.157Z,57.95
2023-02-08T03:22:28.447Z,54.80
2023-02-08T03:25:52.404Z,50.33
2023-02-08T03:28:50.925Z,52.78
2023-02-08T03:31:49.714Z,52.13
2023-02-08T03:34:52.982Z,48.85
2023-02-08T03:37:51.963Z,52.25
2023-02-08T03:40:45.347Z,52.35
2023-02-08T03:43:37.234Z,51.80
2023-02-08T03:46:48.546Z,50.17
2023-02-08T03:49:36.478Z,51.08
2023-02-08T03:52:22.588Z,53.28
2023-02-08T03:55:13.300Z,53.33
2023-02-08T03:58:11.887Z,51.63
2023-02-08T04:01:26.612Z,49.20
2023-02-08T04:04:14.780Z,51.38
2023-02-08T04:07:00.322Z,55.45
2023-02-08T04:09:46.093Z,52.25
2023-02-08T04:12:31.355Z,51.55
2023-02-08T04:15:16.945Z,55.50
2023-02-08T04:18:02.288Z,52.63
2023-02-08T04:20:47.877Z,48.72
2023-02-08T04:23:33.221Z,45.85
2023-02-08T04:26:18.589Z,50.47
2023-02-08T04:29:04.127Z,47.47
2023-02-08T04:31:49.717Z,51.05
2023-02-08T04:34:35.153Z,48.20
2023-02-08T04:37:20.625Z,47.65
2023-02-08T04:40:06.222Z,40.85
2023-02-08T04:42:51.584Z,51.67
2023-02-08T04:45:37.653Z,51.78
2023-02-08T04:48:23.337Z,50.88
2023-02-08T04:51:08.504Z,50.45
2023-02-08T04:53:53.849Z,44.00
2023-02-08T04:56:39.397Z,50.13
2023-02-08T04:59:24.662Z,46.70
2023-02-08T05:02:09.849Z,48.67
2023-02-08T05:04:55.046Z,45.08
2023-02-08T05:07:40.668Z,48.28
2023-02-08T05:10:26.696Z,47.97
2023-02-08T05:13:11.926Z,47.67
2023-02-08T05:15:57.819Z,46.15
2023-02-08T05:18:43.291Z,44.85
2023-02-08T05:21:28.688Z,49.42
2023-02-08T05:24:13.902Z,47.00
2023-02-08T05:26:59.329Z,46.95
2023-02-08T05:29:44.559Z,46.38
2023-02-08T05:32:29.968Z,50.38
2023-02-08T05:35:15.126Z,56.45
2023-02-08T05:38:00.614Z,47.63
2023-02-08T05:40:45.871Z,52.28
2023-02-08T05:43:31.145Z,50.75
2023-02-08T05:46:16.441Z,50.47
2023-02-08T05:49:01.727Z,48.58
2023-02-08T05:51:46.769Z,49.75
2023-02-08T05:54:31.954Z,45.47
2023-02-08T05:57:17.440Z,48.88
2023-02-08T06:00:04.778Z,46.63
2023-02-08T06:02:50.031Z,48.60
2023-02-08T06:05:37.949Z,54.42
2023-02-08T06:08:23.398Z,57.20
2023-02-08T06:11:08.896Z,50.65
2023-02-08T06:13:54.398Z,53.53
2023-02-08T06:16:40.025Z,50.20
2023-02-08T06:19:25.387Z,52.47
2023-02-08T06:22:10.726Z,47.35
2023-02-08T06:24:55.912Z,54.10
2023-02-08T06:27:41.216Z,58.08
2023-02-08T06:30:26.524Z,54.88
2023-02-08T06:33:13.409Z,56.28
2023-02-08T06:35:59.806Z,52.60
2023-02-08T06:38:45.015Z,56.30
2023-02-08T06:41:30.109Z,57.92
2023-02-08T06:44:15.530Z,45.85
2023-02-08T06:47:00.748Z,53.30
2023-02-08T06:49:45.943Z,58.00
2023-02-08T06:52:31.612Z,54.38
2023-02-08T06:55:16.795Z,52.55
2023-02-08T06:58:02.084Z,56.80
2023-02-08T07:00:47.272Z,52.58
2023-02-08T07:03:32.956Z,52.67
2023-02-08T07:06:19.879Z,56.95
2023-02-08T07:09:05.103Z,60.92
2023-02-08T07:11:50.706Z,57.63
2023-02-08T07:14:39.122Z,59.20
2023-02-08T07:17:24.217Z,47.80
2023-02-08T07:20:11.466Z,54.75
2023-02-08T07:22:56.525Z,53.15
2023-02-08T07:25:42.032Z,50.60
2023-02-08T07:28:27.712Z,66.15
2023-02-08T07:31:16.037Z,52.05
2023-02-08T07:34:01.199Z,54.63
2023-02-08T07:36:46.587Z,55.03
2023-02-08T07:39:32.118Z,57.42
2023-02-08T07:42:17.659Z,57.72
2023-02-08T07:45:13.407Z,52.38
2023-02-08T07:47:58.910Z,52.70
2023-02-08T07:50:44.469Z,57.17
2023-02-08T07:53:30.773Z,59.53
2023-02-08T07:56:16.107Z,57.97
2023-02-08T07:59:01.564Z,57.25
2023-02-08T08:01:47.091Z,61.72
2023-02-08T08:04:32.468Z,56.35
2023-02-08T08:07:18.019Z,55.60
2023-02-08T08:10:04.573Z,49.70
2023-02-08T08:12:49.721Z,54.22
2023-02-08T08:15:35.218Z,55.25
2023-02-08T08:18:20.393Z,51.80
2023-02-08T08:21:06.500Z,53.28
2023-02-08T08:23:51.431Z,54.00
2023-02-08T08:26:36.902Z,51.13
2023-02-08T08:29:22.369Z,57.10
2023-02-08T08:32:08.470Z,52.17
2023-02-08T08:34:54.426Z,52.10
2023-02-08T08:37:39.887Z,51.53
2023-02-08T08:40:25.288Z,57.42
2023-02-08T08:43:10.514Z,52.78
2023-02-08T08:45:55.730Z,54.22
2023-02-08T08:48:41.215Z,55.20
2023-02-08T08:51:26.548Z,58.00
2023-02-08T08:54:12.111Z,56.60
2023-02-08T08:56:57.351Z,59.45
2023-02-08T08:59:42.698Z,63.38
2023-02-08T09:02:28.193Z,61.30
2023-02-08T09:05:13.702Z,57.65
2023-02-08T09:08:01.316Z,59.22
2023-02-08T09:10:46.605Z,57.95
2023-02-08T09:13:32.073Z,52.25
2023-02-08T09:16:18.021Z,58.88
2023-02-08T09:19:08.214Z,61.10
2023-02-08T09:21:53.376Z,58.95
2023-02-08T09:24:39.941Z,61.53
2023-02-08T09:27:25.426Z,56.10
2023-02-08T09:30:11.231Z,61.08
2023-02-08T09:32:56.546Z,70.10
2023-02-08T09:35:44.253Z,58.60
2023-02-08T09:38:29.798Z,57.25
2023-02-08T09:41:33.828Z,60.28
2023-02-08T09:44:25.242Z,60.28
2023-02-08T09:47:20.958Z,58.83
2023-02-08T09:50:40.418Z,63.60
2023-02-08T09:53:35.110Z,55.08
2023-02-08T09:56:28.068Z,51.30
2023-02-08T09:59:21.124Z,60.53
2023-02-08T10:02:26.838Z,61.22
2023-02-08T10:05:15.700Z,60.55
2023-02-08T10:08:01.760Z,65.40
2023-02-08T10:10:54.878Z,65.93
2023-02-08T10:13:43.472Z,63.90
2023-02-08T10:16:50.869Z,60.25
2023-02-08T10:19:41.019Z,67.43
2023-02-08T10:22:49.680Z,63.42
2023-02-08T10:25:47.138Z,59.08
2023-02-08T10:28:54.325Z,56.72
2023-02-08T10:31:46.093Z,66.78
2023-02-08T10:34:52.535Z,61.83
2023-02-08T10:37:42.062Z,53.88
2023-02-08T10:40:32.608Z,56.53
2023-02-08T10:43:36.410Z,66.10
2023-02-08T10:46:37.878Z,59.35
2023-02-08T10:49:22.989Z,58.50
2023-02-08T10:52:08.491Z,62.30
2023-02-08T10:54:57.503Z,57.47
2023-02-08T10:57:44.417Z,59.45
2023-02-08T11:00:40.474Z,64.55
2023-02-08T11:03:29.219Z,63.30
2023-02-08T11:06:27.735Z,61.50
2023-02-08T11:09:30.663Z,57.15
2023-02-08T11:12:20.811Z,61.53
2023-02-08T11:15:20.870Z,60.95
2023-02-08T11:18:07.941Z,59.85
2023-02-08T11:20:59.735Z,61.22
2023-02-08T11:23:51.339Z,58.55
2023-02-08T11:26:37.707Z,62.55
2023-02-08T11:29:29.130Z,58.25
2023-02-08T11:32:19.965Z,57.38
2023-02-08T11:35:22.726Z,66.20
2023-02-08T11:38:19.312Z,57.40
2023-02-08T11:41:15.734Z,54.65
2023-02-08T11:44:06.714Z,60.63
2023-02-08T11:46:53.727Z,61.33
2023-02-08T11:49:41.646Z,53.35
2023-02-08T11:52:33.243Z,62.85
2023-02-08T11:55:18.378Z,58.20
2023-02-08T11:58:17.920Z,57.58
2023-02-08T12:01:18.648Z,59.78
2023-02-08T12:04:07.721Z,53.70
2023-02-08T12:07:17.330Z,60.42
2023-02-08T12:10:15.002Z,59.03
2023-02-08T12:13:12.528Z,53.67
2023-02-08T12:16:03.553Z,52.60
2023-02-08T12:19:07.692Z,63.95
2023-02-08T12:22:05.940Z,60.83
2023-02-08T12:25:14.394Z,57.50
2023-02-08T12:28:14.138Z,63.45
2023-02-08T12:31:16.578Z,55.88
2023-02-08T12:34:17.644Z,63.42
2023-02-08T12:37:49.362Z,64.20
2023-02-08T12:40:59.392Z,63.22
2023-02-08T12:44:03.251Z,57.10
2023-02-08T12:46:54.623Z,60.30
2023-02-08T12:49:55.128Z,57.17
2023-02-08T12:53:03.232Z,62.95
2023-02-08T12:55:51.131Z,59.03
2023-02-08T12:58:50.028Z,60.30
2023-02-08T13:01:43.156Z,44.95
2023-02-08T13:04:46.134Z,62.00
2023-02-08T13:07:38.597Z,56.65
2023-02-08T13:10:40.640Z,57.30
2023-02-08T13:13:39.258Z,61.22
2023-02-08T13:16:30.613Z,57.70
2023-02-08T13:19:59.731Z,52.20
2023-02-08T13:22:46.903Z,42.57
2023-02-08T13:25:37.141Z,56.90
2023-02-08T13:28:24.397Z,62.78
2023-02-08T13:31:20.283Z,63.67
2023-02-08T13:34:14.575Z,55.42
2023-02-08T13:37:07.097Z,49.53
2023-02-08T13:40:08.429Z,59.17
2023-02-08T13:43:34.800Z,53.83
2023-02-08T13:46:23.101Z,56.05
2023-02-08T13:49:46.348Z,59.83
2023-02-08T13:52:47.541Z,58.45
2023-02-08T13:55:57.411Z,62.63
2023-02-08T13:58:42.740Z,62.67
2023-02-08T14:01:33.037Z,54.22
2023-02-08T14:04:31.980Z,54.22
2023-02-08T14:07:29.967Z,50.28
2023-02-08T14:10:21.101Z,59.28
2023-02-08T14:13:22.992Z,60.58
2023-02-08T14:16:29.219Z,56.33
2023-02-08T14:19:21.962Z,56.80
2023-02-08T14:22:13.479Z,56.55
2023-02-08T14:25:01.957Z,57.10
2023-02-08T14:27:53.881Z,52.15
2023-02-08T14:30:39.633Z,55.47
2023-02-08T14:33:37.367Z,57.83
2023-02-08T14:36:27.651Z,57.53
2023-02-08T14:39:24.406Z,55.00
2023-02-08T14:42:13.908Z,56.53
2023-02-08T14:45:00.573Z,60.45
2023-02-08T14:47:48.864Z,64.75
2023-02-08T14:50:39.896Z,55.75
2023-02-08T14:53:46.842Z,48.95
2023-02-08T14:56:37.269Z,58.30
2023-02-08T14:59:27.389Z,52.72
2023-02-08T15:02:20.032Z,56.80
2023-02-08T15:05:09.994Z,58.60
2023-02-08T15:07:58.039Z,62.25
2023-02-08T15:10:45.090Z,55.75
2023-02-08T15:13:31.174Z,56.10
2023-02-08T15:16:16.987Z,54.30
2023-02-08T15:19:05.061Z,68.88
2023-02-08T15:21:50.899Z,59.22
2023-02-08T15:24:36.201Z,64.72
2023-02-08T15:27:27.379Z,58.90
2023-02-08T15:30:27.073Z,55.35
2023-02-08T15:33:17.871Z,53.63
2023-02-08T15:36:14.822Z,49.95
2023-02-08T15:39:24.882Z,53.63
2023-02-08T15:42:18.873Z,54.47
2023-02-08T15:45:04.920Z,52.95
2023-02-08T15:47:51.476Z,61.10
2023-02-08T15:50:37.240Z,55.10
2023-02-08T15:53:23.746Z,54.65
2023-02-08T15:56:09.808Z,56.28
2023-02-08T15:58:59.218Z,52.38
2023-02-08T16:01:47.904Z,54.10
2023-02-08T16:04:42.745Z,49.92
2023-02-08T16:07:33.751Z,53.10
2023-02-08T16:10:30.822Z,47.40
2023-02-08T16:13:26.300Z,43.90
2023-02-08T16:16:26.337Z,49.60
2023-02-08T16:19:32.006Z,49.25
2023-02-08T16:22:29.425Z,49.38
2023-02-08T16:25:35.785Z,57.08
2023-02-08T16:28:27.945Z,53.22
2023-02-08T16:31:20.612Z,49.83
2023-02-08T16:34:13.292Z,55.47
2023-02-08T16:36:59.092Z,51.95
2023-02-08T16:39:54.701Z,60.13
2023-02-08T16:42:40.264Z,54.15
2023-02-08T16:45:25.587Z,55.92
2023-02-08T16:48:35.913Z,47.42
2023-02-08T16:51:23.694Z,50.40
2023-02-08T16:54:13.528Z,52.35
2023-02-08T16:57:04.625Z,58.38
2023-02-08T16:59:50.024Z,47.40
2023-02-08T17:02:35.484Z,50.47
2023-02-08T17:05:23.974Z,52.95
2023-02-08T17:08:16.958Z,51.17
2023-02-08T17:11:02.318Z,53.28
2023-02-08T17:13:47.826Z,57.30
2023-02-08T17:16:35.147Z,55.55
2023-02-08T17:19:22.383Z,55.63
2023-02-08T17:22:07.364Z,58.28
2023-02-08T17:24:53.195Z,55.95
2023-02-08T17:27:38.950Z,50.22
2023-02-08T17:30:25.663Z,54.05
2023-02-08T17:33:20.405Z,50.13
2023-02-08T17:36:10.489Z,60.15
2023-02-08T17:38:55.624Z,51.67
2023-02-08T17:41:41.112Z,52.30
2023-02-08T17:44:26.478Z,61.60
2023-02-08T17:47:11.690Z,57.20
2023-02-08T17:49:57.526Z,51.35
2023-02-08T17:52:42.873Z,56.53
2023-02-08T17:55:28.278Z,53.40
2023-02-08T17:58:13.805Z,57.17
2023-02-08T18:00:59.056Z,51.60
2023-02-08T18:03:50.432Z,54.97
2023-02-08T18:06:36.114Z,53.65
2023-02-08T18:09:21.499Z,51.33
2023-02-08T18:12:07.189Z,53.63
2023-02-08T18:14:52.776Z,50.35
2023-02-08T18:17:38.546Z,54.70
2023-02-08T18:20:23.763Z,55.20
2023-02-08T18:23:09.246Z,57.08
2023-02-08T18:26:07.048Z,51.15
2023-02-08T18:28:52.856Z,52.67
2023-02-08T18:31:38.745Z,50.08
2023-02-08T18:34:24.140Z,48.50
2023-02-08T18:37:10.154Z,47.67
2023-02-08T18:39:55.693Z,50.00
2023-02-08T18:42:41.179Z,44.28
2023-02-08T18:45:26.475Z,51.42
2023-02-08T18:48:13.148Z,49.75
2023-02-08T18:51:02.791Z,51.45
2023-02-08T18:53:51.558Z,48.97
2023-02-08T18:56:36.938Z,42.28
2023-02-08T18:59:22.683Z,48.25
2023-02-08T19:02:08.573Z,49.40
2023-02-08T19:04:53.749Z,50.15
2023-02-08T19:07:40.040Z,54.08
2023-02-08T19:10:25.573Z,55.78
2023-02-08T19:13:10.897Z,51.03
2023-02-08T19:15:56.159Z,51.45
2023-02-08T19:18:41.693Z,47.55
2023-02-08T19:21:28.509Z,52.70
2023-02-08T19:24:15.227Z,54.38
2023-02-08T19:27:00.991Z,54.72
2023-02-08T19:29:46.223Z,47.15
2023-02-08T19:32:31.399Z,43.28
2023-02-08T19:35:16.681Z,52.28
2023-02-08T19:38:01.760Z,52.22
2023-02-08T19:40:53.620Z,44.22
2023-02-08T19:43:39.100Z,44.13
2023-02-08T19:46:27.476Z,47.58
2023-02-08T19:49:21.158Z,42.78
2023-02-08T19:52:06.391Z,48.65
2023-02-08T19:54:52.868Z,46.72
2023-02-08T19:57:39.992Z,44.95
2023-02-08T20:00:26.575Z,46.65
2023-02-08T20:03:21.531Z,47.97
2023-02-08T20:06:14.722Z,48.38
2023-02-08T20:09:03.917Z,47.45
2023-02-08T20:11:57.110Z,44.05
2023-02-08T20:14:43.564Z,44.90
2023-02-08T20:17:29.012Z,45.90
2023-02-08T20:20:14.555Z,48.05
2023-02-08T20:23:02.037Z,46.22
2023-02-08T20:25:47.440Z,48.63
2023-02-08T20:28:32.681Z,44.28
2023-02-08T20:31:22.286Z,46.22
2023-02-08T20:37:06.441Z,44.85
2023-02-08T20:39:52.227Z,33.92
2023-02-08T20:42:37.550Z,44.88
2023-02-08T20:45:22.938Z,41.03
2023-02-08T20:48:11.159Z,47.83
2023-02-08T20:51:04.447Z,44.30
2023-02-08T20:53:52.362Z,45.03
2023-02-08T20:56:38.595Z,45.45
2023-02-08T20:59:24.122Z,44.65
2023-02-08T21:02:16.831Z,41.95
2023-02-08T21:05:02.183Z,40.78
2023-02-08T21:07:47.436Z,41.33
2023-02-08T21:10:36.593Z,44.83
2023-02-08T21:13:22.007Z,39.08
2023-02-08T21:16:10.095Z,42.45
2023-02-08T21:18:57.054Z,42.75
2023-02-08T21:21:42.699Z,41.67
2023-02-08T21:24:28.921Z,43.60
2023-02-08T21:27:14.445Z,48.03
2023-02-08T21:29:59.856Z,42.67
2023-02-08T21:32:45.562Z,39.33
2023-02-08T21:35:31.103Z,38.53
2023-02-08T21:38:16.735Z,35.20
2023-02-08T21:41:10.161Z,44.25
2023-02-08T21:43:59.007Z,38.10
2023-02-08T21:46:44.882Z,40.72
2023-02-08T21:49:48.391Z,43.38
2023-02-08T21:52:52.227Z,40.10
2023-02-08T21:55:37.394Z,42.10
2023-02-08T21:58:22.904Z,37.72
2023-02-08T22:01:08.466Z,39.78
2023-02-08T22:03:53.620Z,42.50
2023-02-08T22:06:39.088Z,34.85
2023-02-08T22:09:24.368Z,36.58
2023-02-08T22:12:18.537Z,39.42
2023-02-08T22:15:04.077Z,35.70
2023-02-08T22:18:00.481Z,41.30
2023-02-08T22:20:46.093Z,37.22
2023-02-08T22:23:31.846Z,36.40
2023-02-08T22:26:17.425Z,35.10
2023-02-08T22:29:02.913Z,40.70
2023-02-08T22:31:48.302Z,35.42
2023-02-08T22:34:33.513Z,35.85
2023-02-08T22:37:19.135Z,39.42
2023-02-08T22:40:05.448Z,40.72
2023-02-08T22:42:50.585Z,35.10
2023-02-08T22:45:35.974Z,39.60
2023-02-08T22:48:21.341Z,39.50
2023-02-08T22:51:08.527Z,37.00
2023-02-08T22:53:55.841Z,37.45
2023-02-08T22:56:41.076Z,42.38
2023-02-08T22:59:26.656Z,37.65
2023-02-08T23:02:11.810Z,39.22
2023-02-08T23:04:57.178Z,36.28
2023-02-08T23:07:42.586Z,37.10
2023-02-08T23:10:27.962Z,37.00
2023-02-08T23:13:13.547Z,39.25
2023-02-08T23:15:58.919Z,36.55
2023-02-08T23:18:45.279Z,41.00
2023-02-08T23:21:31.239Z,37.30
2023-02-08T23:24:16.276Z,41.13
2023-02-08T23:27:01.718Z,37.20
2023-02-08T23:29:47.101Z,36.30
2023-02-08T23:32:32.436Z,40.00
2023-02-08T23:35:17.838Z,36.45
2023-02-08T23:38:02.999Z,40.78
2023-02-08T23:40:48.556Z,38.08
2023-02-08T23:43:33.622Z,33.63
2023-02-08T23:46:22.856Z,36.25
2023-02-08T23:49:08.125Z,38.92
2023-02-08T23:51:53.561Z,38.13
2023-02-08T23:54:38.805Z,40.88
2023-02-08T23:57:23.908Z,37.17
